createdAt,value
2022-08-20T00:00:46.419Z,3.95
2022-08-20T00:03:27.697Z,3.63
2022-08-20T00:08:31.032Z,2.60
2022-08-20T00:11:01.157Z,3.83
2022-08-20T00:13:37.830Z,3.65
2022-08-20T00:16:06.605Z,2.97
2022-08-20T00:18:36.970Z,4.05
2022-08-20T00:21:06.701Z,2.90
2022-08-20T00:23:33.276Z,3.65
2022-08-20T00:25:59.900Z,3.70
2022-08-20T00:28:26.446Z,4.03
2022-08-20T00:30:53.008Z,4.30
2022-08-20T00:33:22.455Z,3.17
2022-08-20T00:35:53.543Z,3.60
2022-08-20T00:38:20.537Z,3.72
2022-08-20T00:40:51.064Z,3.03
2022-08-20T00:43:36.217Z,2.80
2022-08-20T00:46:06.989Z,3.40
2022-08-20T00:48:36.010Z,3.20
2022-08-20T00:51:10.095Z,2.90
2022-08-20T00:53:37.592Z,3.25
2022-08-20T00:56:06.890Z,4.10
2022-08-20T00:58:34.353Z,5.22
2022-08-20T01:01:01.658Z,5.70
2022-08-20T01:03:28.226Z,4.85
2022-08-20T01:05:54.775Z,5.53
2022-08-20T01:08:24.642Z,5.40
2022-08-20T01:10:53.879Z,6.63
2022-08-20T01:13:22.490Z,5.63
2022-08-20T01:15:51.978Z,6.47
2022-08-20T01:18:21.194Z,5.97
2022-08-20T01:20:54.444Z,6.70
2022-08-20T01:23:32.657Z,6.10
2022-08-20T01:26:10.882Z,5.55
2022-08-20T01:28:45.415Z,5.47
2022-08-20T01:31:15.626Z,5.55
2022-08-20T01:33:44.860Z,4.82
2022-08-20T01:36:14.056Z,5.80
2022-08-20T01:38:40.956Z,5.25
2022-08-20T01:41:29.358Z,6.68
2022-08-20T01:43:58.567Z,6.50
2022-08-20T01:46:33.040Z,7.00
2022-08-20T01:49:21.026Z,7.30
2022-08-20T01:51:52.392Z,8.43
2022-08-20T01:54:19.408Z,7.70
2022-08-20T01:56:59.867Z,8.90
2022-08-20T01:59:26.772Z,8.60
2022-08-20T02:01:55.082Z,7.47
2022-08-20T02:04:21.949Z,7.78
2022-08-20T02:06:56.262Z,7.57
2022-08-20T02:09:30.209Z,7.07
2022-08-20T02:11:57.786Z,7.07
2022-08-20T02:14:25.035Z,6.75
2022-08-20T02:16:54.899Z,6.25
2022-08-20T02:19:34.248Z,6.68
2022-08-20T02:22:04.466Z,5.75
2022-08-20T02:24:31.105Z,5.40
2022-08-20T02:26:57.632Z,6.32
2022-08-20T02:29:24.219Z,6.70
2022-08-20T02:32:25.155Z,6.68
2022-08-20T02:34:37.968Z,6.63
2022-08-20T02:37:06.328Z,6.80
2022-08-20T02:39:34.077Z,7.38
2022-08-20T02:42:02.757Z,8.20
2022-08-20T02:44:31.182Z,8.88
2022-08-20T02:46:58.381Z,8.75
2022-08-20T02:49:24.981Z,9.48
2022-08-20T02:51:51.526Z,10.43
2022-08-20T02:54:18.124Z,10.85
2022-08-20T02:56:44.982Z,11.63
2022-08-20T02:59:13.708Z,11.70
2022-08-20T03:01:46.400Z,12.02
2022-08-20T03:04:12.965Z,11.60
2022-08-20T03:06:39.615Z,12.80
2022-08-20T03:09:07.802Z,12.98
2022-08-20T03:11:34.975Z,13.13
2022-08-20T03:14:02.256Z,14.02
2022-08-20T03:16:28.852Z,13.82
2022-08-20T03:18:55.855Z,13.32
2022-08-20T03:21:22.388Z,13.95
2022-08-20T03:23:49.027Z,14.57
2022-08-20T03:26:16.476Z,14.32
2022-08-20T03:28:43.510Z,15.52
2022-08-20T03:31:10.226Z,11.63
2022-08-20T03:33:39.636Z,14.55
2022-08-20T03:36:28.124Z,12.57
2022-08-20T03:38:57.889Z,14.73
2022-08-20T03:41:25.276Z,13.88
2022-08-20T03:43:52.694Z,11.65
2022-08-20T03:46:23.550Z,12.48
2022-08-20T03:51:29.985Z,12.63
2022-08-20T03:53:57.302Z,12.30
2022-08-20T03:56:24.125Z,11.15
2022-08-20T03:58:50.714Z,11.45
2022-08-20T04:01:44.314Z,11.02
2022-08-20T04:04:04.448Z,11.50
2022-08-20T04:06:30.997Z,13.13
2022-08-20T04:08:57.718Z,12.52
2022-08-20T04:11:24.434Z,12.90
2022-08-20T04:13:51.303Z,13.05
2022-08-20T04:16:18.265Z,11.45
2022-08-20T04:19:01.545Z,14.10
2022-08-20T04:21:33.083Z,12.68
2022-08-20T04:24:00.604Z,13.10
2022-08-20T04:26:27.166Z,11.35
2022-08-20T04:28:55.769Z,11.65
2022-08-20T04:31:25.312Z,11.48
2022-08-20T04:33:52.638Z,12.13
2022-08-20T04:36:19.321Z,11.50
2022-08-20T04:38:48.088Z,11.02
2022-08-20T04:41:23.208Z,12.07
2022-08-20T04:43:51.794Z,11.10
2022-08-20T04:46:19.346Z,10.88
2022-08-20T04:48:50.094Z,12.38
2022-08-20T04:53:51.666Z,13.18
2022-08-20T04:56:23.213Z,13.00
2022-08-20T04:58:51.268Z,12.02
2022-08-20T05:01:18.476Z,12.27
2022-08-20T05:03:47.787Z,12.40
2022-08-20T05:06:16.056Z,11.80
2022-08-20T05:08:43.179Z,11.10
2022-08-20T05:11:34.620Z,10.55
2022-08-20T05:13:57.227Z,9.80
2022-08-20T05:16:24.645Z,10.55
2022-08-20T05:18:52.726Z,10.02
2022-08-20T05:21:20.612Z,9.07
2022-08-20T05:23:47.394Z,9.07
2022-08-20T05:26:15.896Z,9.73
2022-08-20T05:28:53.879Z,8.75
2022-08-20T05:31:32.536Z,8.52
2022-08-20T05:34:10.729Z,8.43
2022-08-20T05:36:49.679Z,8.18
2022-08-20T05:39:18.376Z,9.30
2022-08-20T05:41:45.134Z,9.45
2022-08-20T05:44:14.036Z,9.35
2022-08-20T05:46:42.701Z,8.77
2022-08-20T05:49:16.329Z,8.32
2022-08-20T05:51:43.763Z,9.85
2022-08-20T05:54:11.006Z,9.15
2022-08-20T05:56:39.527Z,8.63
2022-08-20T05:59:07.420Z,7.85
2022-08-20T06:01:36.372Z,8.52
2022-08-20T06:04:22.222Z,8.40
2022-08-20T06:06:51.121Z,8.07
2022-08-20T06:09:27.931Z,8.02
2022-08-20T06:12:03.281Z,7.63
2022-08-20T06:17:02.915Z,8.02
2022-08-20T06:19:32.085Z,7.47
2022-08-20T06:21:59.413Z,7.82
2022-08-20T06:24:26.952Z,6.32
2022-08-20T06:26:57.569Z,7.93
2022-08-20T06:29:24.243Z,8.82
2022-08-20T06:31:50.756Z,10.52
2022-08-20T06:34:18.743Z,8.05
2022-08-20T06:36:48.334Z,7.80
2022-08-20T06:39:15.997Z,6.72
2022-08-20T06:41:42.649Z,6.28
2022-08-20T06:44:10.137Z,6.18
2022-08-20T06:46:37.654Z,6.35
2022-08-20T06:49:08.575Z,6.07
2022-08-20T06:51:37.331Z,6.05
2022-08-20T06:54:05.256Z,5.35
2022-08-20T06:56:33.517Z,5.85
2022-08-20T06:59:00.150Z,4.85
2022-08-20T07:01:26.720Z,5.38
2022-08-20T07:03:55.307Z,5.90
2022-08-20T07:06:25.516Z,4.65
2022-08-20T07:08:53.058Z,6.35
2022-08-20T07:11:26.566Z,6.07
2022-08-20T07:13:56.554Z,6.70
2022-08-20T07:16:23.142Z,6.38
2022-08-20T07:18:49.677Z,6.88
2022-08-20T07:21:17.471Z,7.85
2022-08-20T07:23:44.558Z,7.22
2022-08-20T07:26:11.135Z,7.38
2022-08-20T07:28:37.686Z,6.72
2022-08-20T07:31:22.897Z,8.45
2022-08-20T07:33:50.557Z,7.47
2022-08-20T07:36:17.749Z,8.10
2022-08-20T07:38:47.209Z,8.38
2022-08-20T07:41:17.712Z,8.10
2022-08-20T08:01:06.537Z,7.43
2022-08-20T08:24:21.786Z,4.38
2022-08-20T08:26:50.214Z,3.85
2022-08-20T08:29:17.204Z,4.03
2022-08-20T08:31:43.987Z,4.18
2022-08-20T08:34:10.566Z,4.20
2022-08-20T08:36:39.329Z,4.22
2022-08-20T08:39:05.997Z,4.10
2022-08-20T08:41:40.912Z,4.65
2022-08-20T08:44:12.523Z,3.90
2022-08-20T08:46:43.024Z,4.50
2022-08-20T08:49:12.961Z,4.80
2022-08-20T08:51:46.397Z,4.60
2022-08-20T08:54:22.489Z,4.57
2022-08-20T08:56:50.606Z,4.40
2022-08-20T08:59:18.281Z,4.57
2022-08-20T09:01:54.085Z,4.93
2022-08-20T09:04:28.490Z,4.90
2022-08-20T09:06:55.073Z,4.65
2022-08-20T09:09:25.614Z,4.82
2022-08-20T09:11:55.855Z,5.72
2022-08-20T09:14:24.983Z,5.57
2022-08-20T09:16:52.818Z,5.78
2022-08-20T09:19:20.227Z,4.35
2022-08-20T09:21:48.731Z,5.32
2022-08-20T09:24:15.391Z,5.35
2022-08-20T09:26:42.055Z,5.43
2022-08-20T09:32:54.630Z,4.40
2022-08-20T09:35:31.930Z,4.10
2022-08-20T09:41:44.683Z,3.38
2022-08-20T09:44:11.218Z,2.90
2022-08-20T09:46:37.751Z,3.00
2022-08-20T09:49:04.312Z,2.75
2022-08-20T09:51:33.920Z,3.50
2022-08-20T09:54:05.320Z,3.50
2022-08-20T09:56:34.406Z,3.50
2022-08-20T09:59:02.913Z,3.20
2022-08-20T10:01:29.660Z,3.30
2022-08-20T10:03:56.322Z,3.30
2022-08-20T10:06:22.870Z,2.90
2022-08-20T10:08:49.716Z,3.00
2022-08-20T10:11:18.026Z,3.20
2022-08-20T10:13:45.016Z,3.15
2022-08-20T10:16:11.587Z,3.25
2022-08-20T10:18:38.263Z,3.15
2022-08-20T10:21:10.413Z,2.63
2022-08-20T10:23:36.945Z,3.15
2022-08-20T10:26:03.784Z,3.20
2022-08-20T10:28:30.324Z,3.75
2022-08-20T10:30:56.840Z,5.47
2022-08-20T10:33:23.486Z,6.15
2022-08-20T10:35:50.061Z,6.50
2022-08-20T10:38:17.238Z,6.38
2022-08-20T10:40:49.802Z,7.65
2022-08-20T10:43:19.285Z,7.68
2022-08-20T10:45:45.819Z,8.90
2022-08-20T10:48:12.388Z,8.77
2022-08-20T10:50:38.961Z,10.70
2022-08-20T10:53:05.520Z,11.80
2022-08-20T10:55:32.222Z,10.07
2022-08-20T10:57:58.899Z,9.82
2022-08-20T11:00:25.860Z,9.82
2022-08-20T11:02:52.622Z,8.93
2022-08-20T11:05:19.298Z,9.43
2022-08-20T11:08:08.462Z,7.53
2022-08-20T11:10:34.619Z,8.18
2022-08-20T11:13:02.913Z,7.90
2022-08-20T11:15:29.495Z,9.00
2022-08-20T11:17:56.774Z,10.50
2022-08-20T11:20:27.781Z,10.18
2022-08-20T11:22:54.809Z,9.27
2022-08-20T11:25:21.515Z,10.05
2022-08-20T11:27:50.229Z,9.60
2022-08-20T11:30:43.110Z,9.50
2022-08-20T11:33:09.652Z,9.07
2022-08-20T11:35:48.866Z,10.93
2022-08-20T11:38:16.365Z,10.52
2022-08-20T11:40:42.951Z,9.57
2022-08-20T11:43:17.723Z,10.82
2022-08-20T11:45:50.663Z,10.43
2022-08-20T11:48:18.214Z,10.27
2022-08-20T11:50:45.366Z,9.45
2022-08-20T11:53:11.940Z,8.95
2022-08-20T11:55:38.652Z,8.52
2022-08-20T11:58:05.950Z,6.88
2022-08-20T12:00:34.263Z,9.27
2022-08-20T12:03:02.276Z,8.05
2022-08-20T12:05:30.020Z,8.27
2022-08-20T12:07:57.622Z,7.72
2022-08-20T12:10:26.401Z,8.02
2022-08-20T12:12:53.018Z,6.57
2022-08-20T12:15:20.105Z,7.00
2022-08-20T12:17:46.680Z,7.88
2022-08-20T12:20:14.438Z,5.78
2022-08-20T12:22:41.146Z,6.13
2022-08-20T12:25:08.610Z,6.57
2022-08-20T12:27:36.198Z,6.03
2022-08-20T12:30:06.781Z,6.00
2022-08-20T12:32:34.432Z,6.75
2022-08-20T12:35:01.186Z,5.90
2022-08-20T12:37:30.571Z,5.00
2022-08-20T12:39:58.944Z,6.00
2022-08-20T12:42:26.374Z,4.28
2022-08-20T12:44:52.971Z,4.65
2022-08-20T12:47:22.589Z,5.40
2022-08-20T12:49:52.275Z,4.15
2022-08-20T12:52:20.606Z,4.32
2022-08-20T12:54:47.445Z,4.18
2022-08-20T12:57:24.390Z,3.28
2022-08-20T12:59:50.956Z,3.38
2022-08-20T13:02:20.389Z,4.57
2022-08-20T13:04:47.118Z,4.22
2022-08-20T13:07:14.476Z,4.07
2022-08-20T13:09:42.854Z,3.53
2022-08-20T13:12:10.456Z,3.38
2022-08-20T13:14:38.293Z,2.97
2022-08-20T13:17:05.004Z,3.05
2022-08-20T13:19:35.164Z,3.10
2022-08-20T13:22:02.439Z,3.10
2022-08-20T13:24:29.107Z,2.63
2022-08-20T13:27:04.287Z,3.30
2022-08-20T13:29:30.836Z,2.70
2022-08-20T13:31:57.353Z,3.42
2022-08-20T13:34:23.898Z,3.22
2022-08-20T13:36:50.473Z,2.97
2022-08-20T13:39:17.032Z,3.08
2022-08-20T13:41:44.239Z,3.03
2022-08-20T13:44:10.906Z,2.78
2022-08-20T13:46:37.458Z,3.75
2022-08-20T13:49:04.459Z,3.70
2022-08-20T13:51:30.982Z,3.17
2022-08-20T13:53:57.562Z,3.47
2022-08-20T13:56:24.261Z,2.75
2022-08-20T13:58:50.804Z,3.05
2022-08-20T14:01:19.720Z,2.70
2022-08-20T14:03:47.879Z,2.15
2022-08-20T14:06:15.026Z,2.33
2022-08-20T14:08:41.607Z,2.38
2022-08-20T14:11:08.160Z,2.53
2022-08-20T14:13:40.512Z,2.08
2022-08-20T14:16:25.242Z,2.17
2022-08-20T14:18:56.259Z,2.28
2022-08-20T14:21:22.770Z,2.88
2022-08-20T14:23:49.324Z,2.53
2022-08-20T14:26:15.840Z,2.88
2022-08-20T14:28:42.421Z,2.40
2022-08-20T14:31:08.971Z,1.98
2022-08-20T14:33:36.275Z,2.00
2022-08-20T14:36:03.099Z,2.00
2022-08-20T14:38:29.678Z,2.20
2022-08-20T14:40:56.253Z,2.80
2022-08-20T14:43:22.817Z,2.47
2022-08-20T14:45:49.398Z,2.28
2022-08-20T14:48:16.023Z,2.53
2022-08-20T14:50:43.028Z,3.00
2022-08-20T14:53:09.745Z,2.38
2022-08-20T14:55:37.608Z,2.25
2022-08-20T14:58:08.955Z,2.30
2022-08-20T15:00:35.691Z,2.63
2022-08-20T15:03:02.426Z,2.47
2022-08-20T15:05:29.742Z,2.03
2022-08-20T15:07:57.218Z,2.55
2022-08-20T15:10:31.860Z,2.40
2022-08-20T15:12:59.340Z,2.60
2022-08-20T15:15:26.345Z,2.50
2022-08-20T15:17:55.149Z,2.08
2022-08-20T15:20:24.407Z,1.50
2022-08-20T15:22:51.510Z,1.92
2022-08-20T15:25:22.249Z,1.77
2022-08-20T15:27:49.235Z,2.08
2022-08-20T15:30:19.082Z,1.83
2022-08-20T15:32:46.066Z,2.25
2022-08-20T15:35:13.313Z,2.35
2022-08-20T15:37:43.036Z,1.90
2022-08-20T15:40:11.737Z,1.67
2022-08-20T15:42:39.587Z,1.83
2022-08-20T15:45:07.641Z,1.88
2022-08-20T15:47:49.951Z,1.50
2022-08-20T15:50:33.712Z,2.03
2022-08-20T15:53:10.838Z,1.63
2022-08-20T15:55:41.271Z,2.10
2022-08-20T15:58:15.224Z,2.03
2022-08-20T16:00:54.342Z,2.30
2022-08-20T16:03:39.640Z,1.98
2022-08-20T16:06:21.813Z,2.60
2022-08-20T16:09:07.336Z,2.53
2022-08-20T16:11:53.397Z,2.38
2022-08-20T16:14:22.397Z,2.45
2022-08-20T16:17:01.140Z,2.08
2022-08-20T16:19:33.008Z,2.33
2022-08-20T16:21:59.904Z,2.25
2022-08-20T16:24:26.461Z,2.40
2022-08-20T16:27:01.307Z,2.40
2022-08-20T16:29:33.934Z,2.42
2022-08-20T16:32:04.697Z,2.33
2022-08-20T16:34:38.857Z,1.98
2022-08-20T16:37:29.018Z,2.17
2022-08-20T16:39:58.388Z,2.85
2022-08-20T16:42:26.287Z,3.33
2022-08-20T16:44:54.492Z,2.67
2022-08-20T16:47:30.111Z,3.10
2022-08-20T16:50:02.199Z,2.58
2022-08-20T16:52:28.775Z,3.10
2022-08-20T16:54:55.697Z,3.08
2022-08-20T16:57:22.433Z,3.33
2022-08-20T16:59:58.586Z,3.22
2022-08-20T17:02:26.164Z,3.28
2022-08-20T17:04:59.417Z,3.25
2022-08-20T17:07:29.892Z,3.13
2022-08-20T17:10:20.646Z,3.40
2022-08-20T17:12:52.944Z,3.55
2022-08-20T17:15:23.157Z,3.53
2022-08-20T17:17:49.805Z,4.20
2022-08-20T17:20:20.546Z,4.00
2022-08-20T17:23:09.922Z,3.85
2022-08-20T17:25:38.383Z,4.88
2022-08-20T17:28:19.775Z,4.57
2022-08-20T17:30:47.391Z,5.32
2022-08-20T17:33:26.526Z,5.07
2022-08-20T17:35:59.541Z,5.57
2022-08-20T17:38:37.768Z,5.95
2022-08-20T17:41:13.937Z,5.88
2022-08-20T17:43:44.638Z,6.15
2022-08-20T17:46:17.470Z,6.18
2022-08-20T17:48:46.723Z,6.13
2022-08-20T17:51:22.555Z,6.95
2022-08-20T17:54:00.265Z,6.82
2022-08-20T17:56:31.218Z,6.32
2022-08-20T17:59:05.881Z,6.10
2022-08-20T18:01:33.566Z,5.93
2022-08-20T18:04:00.237Z,6.50
2022-08-20T18:06:34.468Z,6.10
2022-08-20T18:09:17.907Z,6.88
2022-08-20T18:15:27.238Z,5.93
2022-08-20T18:18:15.461Z,6.53
2022-08-20T18:25:13.919Z,7.18
2022-08-20T18:27:44.244Z,6.45
2022-08-20T18:30:17.624Z,7.40
2022-08-20T18:32:46.323Z,7.80
2022-08-20T18:35:19.128Z,6.68
2022-08-20T18:37:45.728Z,6.53
2022-08-20T18:40:30.202Z,5.57
2022-08-20T18:43:00.184Z,6.25
2022-08-20T18:45:35.812Z,5.85
2022-08-20T18:48:03.475Z,6.32
2022-08-20T18:50:38.772Z,5.82
2022-08-20T18:53:20.593Z,5.90
2022-08-20T18:56:00.229Z,5.72
2022-08-20T18:58:52.576Z,5.65
2022-08-20T19:01:19.477Z,5.97
2022-08-20T19:03:49.739Z,6.28
2022-08-20T19:06:25.602Z,5.78
2022-08-20T19:09:00.203Z,5.90
2022-08-20T19:11:55.982Z,6.57
2022-08-20T19:14:40.969Z,5.50
2022-08-20T19:17:12.011Z,7.30
2022-08-20T19:19:38.658Z,7.22
2022-08-20T19:22:05.347Z,6.30
2022-08-20T19:24:34.464Z,6.03
2022-08-20T19:27:07.983Z,6.82
2022-08-20T19:29:42.133Z,6.65
2022-08-20T19:32:18.176Z,7.57
2022-08-20T19:34:52.255Z,7.25
2022-08-20T19:37:35.348Z,6.95
2022-08-20T19:40:08.788Z,8.02
2022-08-20T19:42:42.848Z,8.10
2022-08-20T19:45:26.703Z,7.25
2022-08-20T19:47:57.122Z,7.03
2022-08-20T19:50:33.669Z,7.30
2022-08-20T19:53:30.064Z,7.63
2022-08-20T19:56:04.817Z,7.47
2022-08-20T19:58:32.449Z,7.35
2022-08-20T20:01:00.691Z,7.75
2022-08-20T20:03:30.062Z,7.28
2022-08-20T20:06:16.166Z,7.22
2022-08-20T20:08:58.360Z,7.93
2022-08-20T20:11:30.740Z,7.60
2022-08-20T20:14:06.570Z,7.05
2022-08-20T20:16:34.148Z,7.75
2022-08-20T20:19:24.758Z,7.68
2022-08-20T20:21:50.707Z,7.63
2022-08-20T20:24:29.627Z,7.57
2022-08-20T20:26:58.784Z,7.70
2022-08-20T20:29:28.108Z,8.40
2022-08-20T20:31:57.284Z,7.65
2022-08-20T20:34:55.696Z,7.25
2022-08-20T20:37:50.747Z,7.90
2022-08-20T20:40:35.898Z,7.80
2022-08-20T20:43:08.871Z,7.20
2022-08-20T20:45:40.189Z,7.43
2022-08-20T20:50:51.720Z,6.40
2022-08-20T20:53:51.308Z,7.70
2022-08-20T20:56:29.759Z,8.65
2022-08-20T20:58:56.435Z,6.70
2022-08-20T21:01:27.344Z,8.15
2022-08-20T21:04:09.929Z,7.13
2022-08-20T21:06:36.654Z,7.93
2022-08-20T21:09:03.234Z,6.80
2022-08-20T21:11:29.819Z,6.60
2022-08-20T21:13:56.585Z,6.30
2022-08-20T21:16:23.143Z,6.47
2022-08-20T21:18:49.682Z,6.32
2022-08-20T21:21:16.256Z,6.50
2022-08-20T21:23:42.822Z,5.80
2022-08-20T21:26:09.771Z,5.57
2022-08-20T21:28:36.331Z,6.30
2022-08-20T21:31:03.095Z,6.68
2022-08-20T21:33:29.664Z,6.30
2022-08-20T21:35:56.890Z,5.78
2022-08-20T21:38:24.045Z,5.82
2022-08-20T21:40:50.729Z,4.95
2022-08-20T21:43:18.814Z,5.70
2022-08-20T21:45:45.573Z,6.20
2022-08-20T21:48:16.224Z,5.30
2022-08-20T21:50:43.582Z,5.70
2022-08-20T21:53:11.328Z,5.18
2022-08-20T21:55:39.894Z,6.00
2022-08-20T21:58:07.078Z,5.68
2022-08-20T22:00:56.665Z,5.32
2022-08-20T22:03:27.675Z,5.75
2022-08-20T22:05:55.205Z,5.85
2022-08-20T22:08:28.504Z,5.30
2022-08-20T22:10:57.069Z,5.40
2022-08-20T22:13:24.986Z,4.80
2022-08-20T22:15:51.525Z,5.53
2022-08-20T22:18:18.140Z,5.85
2022-08-20T22:20:44.824Z,5.43
2022-08-20T22:23:12.016Z,5.50
2022-08-20T22:25:38.761Z,4.93
2022-08-20T22:28:05.322Z,5.20
2022-08-20T22:30:31.936Z,6.20
2022-08-20T22:33:07.876Z,5.13
2022-08-20T22:35:34.725Z,6.63
2022-08-20T22:38:01.386Z,5.35
2022-08-20T22:40:27.980Z,5.25
2022-08-20T22:42:54.656Z,4.78
2022-08-20T22:45:21.279Z,5.03
2022-08-20T22:47:47.903Z,4.72
2022-08-20T22:50:14.699Z,5.03
2022-08-20T22:52:43.408Z,5.07
2022-08-20T22:55:10.343Z,5.97
2022-08-20T22:57:37.661Z,4.80
2022-08-20T23:00:10.529Z,6.03
2022-08-20T23:02:37.174Z,5.63
2022-08-20T23:05:04.334Z,5.70
2022-08-20T23:07:31.115Z,5.70
2022-08-20T23:09:57.643Z,6.15
2022-08-20T23:12:24.225Z,6.20
2022-08-20T23:14:52.555Z,6.43
2022-08-20T23:17:19.562Z,5.90
2022-08-20T23:19:47.285Z,6.13
2022-08-20T23:22:14.218Z,5.80
2022-08-20T23:24:40.806Z,6.25
2022-08-20T23:27:08.606Z,5.97
2022-08-20T23:29:35.684Z,6.07
2022-08-20T23:32:02.383Z,5.53
2022-08-20T23:34:29.056Z,6.00
2022-08-20T23:36:56.705Z,5.90
2022-08-20T23:39:24.242Z,6.18
2022-08-20T23:41:50.953Z,6.43
2022-08-20T23:44:25.089Z,5.78
2022-08-20T23:46:56.637Z,5.38
2022-08-20T23:49:23.304Z,6.32
2022-08-20T23:51:49.853Z,6.18
2022-08-20T23:54:16.394Z,6.47
2022-08-20T23:56:43.002Z,6.43
2022-08-20T23:59:09.626Z,5.70
